Weather History for KHQU - October, 2012

Change the Weather History Date:

Wednesday, October 17, 2012

  Actual Average (KDBN) Record (KDBN)
Temperature  
Mean Temperature 60 °F -  
Max Temperature 73 °F 79 °F 90 °F (1930)
Min Temperature 46 °F 51 °F 34 °F (1939)
Degree Days  
Heating Degree Days 6    
Growing Degree Days 10 (Base 50)    
Moisture  
Dew Point 49 °F    
Average Humidity 75    
Maximum Humidity 100    
Minimum Humidity 41    
Precipitation  
Precipitation 0.00 in - - ()
Sea Level Pressure  
Sea Level Pressure 29.97 in    
Wind  
Wind Speed 1 mph (SE)    
Max Wind Speed 8 mph    
Max Gust Speed -    
Visibility 10 miles    
Events      
Averages and records for this station are not official NWS values.
T = Trace of Precipitation, MM = Missing Value Source: NWS Daily Summary

Daily Weather History Graph

Daily Weather History Graph

Search for Another Location

Airport or City:

Trip Planner

Search our weather history database for the weather conditions in past years. The results will help you decide how hot, cold, wet, or windy it might be!

Date:

Astronomy

Oct. 17, 2012 Rise Set
Actual Time 7:36 AM EDT 6:53 PM EDT
Civil Twilight 7:11 AM EDT 7:18 PM EDT
Nautical Twilight 6:42 AM EDT 7:47 PM EDT
Astronomical Twilight 6:13 AM EDT 8:16 PM EDT
Moon 10:00 AM EDT (10/17) 8:37 PM EDT (10/17)
Length of Visible Light 12h 06m
Length of Day
11h 16m
Waxing Crescent, 7% of the Moon is Illuminated
Oct 17
Waxing Crescent
Oct 21
First Quarter
Oct 29
Full
Nov 6
Last Quarter
Nov 13
New

Hourly Weather History & Observations

Time (EDT) Temp. Dew Point Humidity Pressure Visibility Wind Dir Wind Speed Gust Speed Precip Events Conditions
12:15 AM 49.1 °F 49.1 °F 100% 29.97 in 10.0 mi Calm Calm - N/A   Clear
12:35 AM 49.5 °F 49.1 °F 99% 29.96 in 10.0 mi Calm Calm - N/A   Clear
12:55 AM 48.9 °F 48.6 °F 99% 29.95 in 10.0 mi Calm Calm - N/A   Clear
1:15 AM 49.1 °F 48.7 °F 99% 29.96 in 10.0 mi Calm Calm - N/A   Clear
1:35 AM 48.2 °F 48.2 °F 100% 29.96 in 10.0 mi Calm Calm - N/A   Clear
1:55 AM 46.9 °F 46.9 °F 100% 29.97 in 10.0 mi Calm Calm - N/A   Clear
2:15 AM 47.7 °F 47.7 °F 100% 29.98 in 10.0 mi Calm Calm - N/A   Clear
2:55 AM 48.2 °F 48.2 °F 100% 29.97 in 10.0 mi Calm Calm - N/A   Clear
3:15 AM 47.3 °F 47.3 °F 100% 29.96 in 10.0 mi Calm Calm - N/A   Clear
3:35 AM 47.8 °F 47.8 °F 100% 29.96 in 10.0 mi Calm Calm - N/A   Clear
3:55 AM 49.1 °F 49.1 °F 100% 29.96 in 10.0 mi Calm Calm - N/A   Clear
4:15 AM 48.4 °F 48.4 °F 100% 29.95 in 10.0 mi Calm Calm - N/A   Clear
4:35 AM 48.6 °F 48.6 °F 100% 29.95 in 10.0 mi Calm Calm - N/A   Clear
4:55 AM 48.0 °F 48.0 °F 100% 29.96 in 10.0 mi Calm Calm - N/A   Clear
5:15 AM 48.0 °F 48.0 °F 100% 29.96 in 10.0 mi Calm Calm - N/A   Clear
5:35 AM 48.2 °F 48.2 °F 100% 29.97 in 10.0 mi Calm Calm - N/A   Clear
5:55 AM 47.7 °F 47.7 °F 100% 29.98 in 10.0 mi Calm Calm - N/A   Clear
6:15 AM 47.1 °F 47.1 °F 100% 29.99 in 10.0 mi Calm Calm - N/A   Clear
6:35 AM 47.3 °F 47.3 °F 100% 29.99 in 10.0 mi Calm Calm - N/A   Clear
6:55 AM 47.5 °F 47.5 °F 100% 29.99 in 10.0 mi Calm Calm - N/A   Clear
7:15 AM 48.2 °F 48.2 °F 100% 29.99 in 10.0 mi Calm Calm - N/A   Clear
7:35 AM 47.8 °F 47.8 °F 100% 30.00 in 10.0 mi Calm Calm - N/A   Clear
7:55 AM 48.4 °F 48.4 °F 100% 30.00 in 10.0 mi Calm Calm - N/A   Clear
8:15 AM 49.1 °F 49.1 °F 100% 30.00 in 10.0 mi Calm Calm - N/A   Clear
8:35 AM 50.0 °F 50.0 °F 100% 30.01 in 10.0 mi Calm Calm - N/A   Clear
8:55 AM 51.1 °F 50.9 °F 99% 30.02 in 10.0 mi Calm Calm - N/A   Clear
9:15 AM 51.8 °F 51.8 °F 100% 30.03 in 10.0 mi Calm Calm - N/A   Clear
9:35 AM 54.3 °F 53.1 °F 95% 30.03 in 10.0 mi Calm Calm - N/A   Clear
9:55 AM 57.6 °F 52.5 °F 83% 30.03 in 10.0 mi Calm Calm - N/A   Clear
10:15 AM 59.0 °F 52.9 °F 80% 30.05 in 10.0 mi Calm Calm - N/A   Clear
10:35 AM 60.4 °F 53.6 °F 78% 30.04 in 10.0 mi Calm Calm - N/A   Clear
10:55 AM 63.3 °F 54.1 °F 72% 30.04 in 10.0 mi Calm Calm - N/A   Clear
11:15 AM 66.2 °F 53.8 °F 64% 30.03 in 10.0 mi South 3.5 mph - N/A   Clear
11:35 AM 68.0 °F 52.9 °F 58% 30.04 in 10.0 mi Calm Calm - N/A   Clear
11:55 AM 69.3 °F 52.9 °F 56% 30.03 in 10.0 mi SSE 4.6 mph - N/A   Clear
12:15 PM 69.8 °F 52.2 °F 53% 30.02 in 10.0 mi SE 6.9 mph - N/A   Clear
12:35 PM 70.7 °F 51.3 °F 50% 30.01 in 10.0 mi South 4.6 mph - N/A   Clear
12:55 PM 71.6 °F 48.9 °F 45% 30.00 in 10.0 mi SE 3.5 mph - N/A   Clear
1:15 PM 72.3 °F 48.6 °F 43% 29.99 in 10.0 mi South 4.6 mph - N/A   Clear
1:35 PM 72.5 °F 48.6 °F 43% 29.98 in 10.0 mi South 5.8 mph - N/A   Clear
1:55 PM 72.1 °F 48.6 °F 43% 29.97 in 10.0 mi SSE 6.9 mph - N/A   Clear
2:15 PM 72.9 °F 48.0 °F 41% 29.96 in 10.0 mi SE 4.6 mph - N/A   Clear
2:35 PM 72.7 °F 48.2 °F 42% 29.95 in 10.0 mi SSE 8.1 mph - N/A   Clear
2:55 PM 73.0 °F 48.2 °F 41% 29.94 in 10.0 mi SSE 4.6 mph - N/A   Clear
3:15 PM 73.0 °F 48.2 °F 41% 29.94 in 10.0 mi SE 5.8 mph - N/A   Clear
3:35 PM 73.2 °F 48.9 °F 42% 29.94 in 10.0 mi ESE 4.6 mph - N/A   Clear
3:55 PM 73.6 °F 48.7 °F 41% 29.92 in 10.0 mi SSE 8.1 mph - N/A   Clear
4:15 PM 73.0 °F 48.4 °F 42% 29.93 in 10.0 mi Calm Calm - N/A   Clear
4:35 PM 72.7 °F 47.7 °F 41% 29.92 in 10.0 mi SSE 5.8 mph - N/A   Clear
4:55 PM 72.9 °F 47.8 °F 41% 29.92 in 10.0 mi SE 4.6 mph - N/A   Clear
5:15 PM 72.5 °F 47.8 °F 42% 29.91 in 10.0 mi SSE 4.6 mph - N/A   Clear
5:35 PM 72.0 °F 47.3 °F 41% 29.91 in 10.0 mi SSE 8.1 mph - N/A   Clear
5:55 PM 71.1 °F 47.1 °F 42% 29.92 in 10.0 mi SSE 5.8 mph - N/A   Clear
6:15 PM 70.2 °F 47.3 °F 44% 29.93 in 10.0 mi SSE 5.8 mph - N/A   Clear
6:35 PM 69.1 °F 47.5 °F 46% 29.93 in 10.0 mi SSE 3.5 mph - N/A   Clear
6:55 PM 66.2 °F 47.5 °F 51% 29.94 in 10.0 mi Calm Calm - N/A   Clear
7:15 PM 63.3 °F 48.9 °F 59% 29.94 in 10.0 mi Calm Calm - N/A   Clear
7:35 PM 61.0 °F 49.3 °F 65% 29.94 in 10.0 mi North - - N/A   Clear
7:55 PM 57.9 °F 49.1 °F 72% 29.94 in 10.0 mi Calm Calm - N/A   Clear
8:15 PM 57.4 °F 49.3 °F 74% 29.95 in 10.0 mi East 3.5 mph - N/A   Clear
8:35 PM 57.0 °F 48.7 °F 74% 29.95 in 10.0 mi Calm Calm - N/A   Clear
8:55 PM 56.3 °F 48.2 °F 74% 29.95 in 10.0 mi Calm Calm - N/A   Clear
9:15 PM 54.7 °F 47.8 °F 78% 29.95 in 10.0 mi Calm Calm - N/A   Clear
9:35 PM 54.9 °F 47.8 °F 77% 29.96 in 10.0 mi Calm Calm - N/A   Clear
9:55 PM 54.7 °F 47.8 °F 78% 29.96 in 10.0 mi Calm Calm - N/A   Clear
10:15 PM 54.5 °F 48.2 °F 79% 29.96 in 10.0 mi ESE 3.5 mph - N/A   Clear
10:35 PM 56.5 °F 49.6 °F 78% 29.96 in 10.0 mi SE 3.5 mph - N/A   Clear
10:55 PM 58.1 °F 50.9 °F 77% 29.95 in 10.0 mi SE 3.5 mph - N/A   Clear
11:15 PM 58.3 °F 51.4 °F 78% 29.95 in 10.0 mi SE 3.5 mph - N/A   Clear
11:35 PM 57.7 °F 51.8 °F 81% 29.95 in 10.0 mi SE 3.5 mph - N/A   Clear
11:55 PM 57.4 °F 52.0 °F 82% 29.94 in 10.0 mi SE 3.5 mph - N/A   Clear